sensor_id;sensor_type;location;lat;lon;timestamp;P1;durP1;ratioP1;P2;durP2;ratioP2
76752;SDS011;65687;51.308;16.916;2023-04-29T00:04:51;6.70;;;5.30;;
76752;SDS011;65687;51.308;16.916;2023-04-29T00:09:53;8.70;;;5.90;;
76752;SDS011;65687;51.308;16.916;2023-04-29T00:14:54;7.40;;;5.40;;
76752;SDS011;65687;51.308;16.916;2023-04-29T00:19:56;7.70;;;5.20;;
76752;SDS011;65687;51.308;16.916;2023-04-29T00:24:57;7.50;;;5.10;;
76752;SDS011;65687;51.308;16.916;2023-04-29T00:29:59;7.80;;;5.30;;
76752;SDS011;65687;51.308;16.916;2023-04-29T00:35:01;9.00;;;6.00;;
76752;SDS011;65687;51.308;16.916;2023-04-29T00:40:02;9.70;;;6.30;;
76752;SDS011;65687;51.308;16.916;2023-04-29T00:45:05;11.30;;;6.70;;
76752;SDS011;65687;51.308;16.916;2023-04-29T00:55:09;9.70;;;6.40;;
76752;SDS011;65687;51.308;16.916;2023-04-29T01:00:13;10.30;;;6.30;;
76752;SDS011;65687;51.308;16.916;2023-04-29T01:05:16;9.50;;;6.20;;
76752;SDS011;65687;51.308;16.916;2023-04-29T01:15:27;8.90;;;5.80;;
76752;SDS011;65687;51.308;16.916;2023-04-29T01:20:33;8.20;;;6.10;;
76752;SDS011;65687;51.308;16.916;2023-04-29T01:25:35;7.20;;;5.30;;
76752;SDS011;65687;51.308;16.916;2023-04-29T01:46:27;7.50;;;5.50;;
76752;SDS011;65687;51.308;16.916;2023-04-29T01:51:29;7.00;;;5.20;;
76752;SDS011;65687;51.308;16.916;2023-04-29T01:56:31;7.60;;;5.80;;
76752;SDS011;65687;51.308;16.916;2023-04-29T02:01:33;9.00;;;6.20;;
76752;SDS011;65687;51.308;16.916;2023-04-29T02:06:34;7.80;;;5.60;;
76752;SDS011;65687;51.308;16.916;2023-04-29T02:11:36;11.40;;;7.40;;
76752;SDS011;65687;51.308;16.916;2023-04-29T02:16:37;11.00;;;7.50;;
76752;SDS011;65687;51.308;16.916;2023-04-29T02:21:39;10.80;;;7.10;;
76752;SDS011;65687;51.308;16.916;2023-04-29T02:26:40;11.10;;;6.90;;
76752;SDS011;65687;51.308;16.916;2023-04-29T02:31:42;12.30;;;7.90;;
76752;SDS011;65687;51.308;16.916;2023-04-29T02:36:43;11.10;;;7.40;;
76752;SDS011;65687;51.308;16.916;2023-04-29T02:41:45;10.20;;;6.90;;
76752;SDS011;65687;51.308;16.916;2023-04-29T02:46:46;11.10;;;7.30;;
76752;SDS011;65687;51.308;16.916;2023-04-29T02:51:48;7.90;;;5.80;;
76752;SDS011;65687;51.308;16.916;2023-04-29T02:56:52;13.60;;;8.90;;
76752;SDS011;65687;51.308;16.916;2023-04-29T03:01:54;11.90;;;8.20;;
76752;SDS011;65687;51.308;16.916;2023-04-29T03:06:55;14.10;;;9.00;;
76752;SDS011;65687;51.308;16.916;2023-04-29T03:11:57;14.10;;;9.10;;
76752;SDS011;65687;51.308;16.916;2023-04-29T03:16:59;12.20;;;8.20;;
76752;SDS011;65687;51.308;16.916;2023-04-29T03:22:00;11.90;;;7.90;;
76752;SDS011;65687;51.308;16.916;2023-04-29T03:27:02;12.50;;;8.70;;
76752;SDS011;65687;51.308;16.916;2023-04-29T03:32:04;13.10;;;8.20;;
76752;SDS011;65687;51.308;16.916;2023-04-29T03:37:06;12.90;;;8.50;;
76752;SDS011;65687;51.308;16.916;2023-04-29T03:42:07;12.50;;;8.30;;
76752;SDS011;65687;51.308;16.916;2023-04-29T03:47:09;14.90;;;9.30;;
76752;SDS011;65687;51.308;16.916;2023-04-29T03:52:10;14.80;;;9.70;;
76752;SDS011;65687;51.308;16.916;2023-04-29T03:57:12;13.10;;;8.20;;
76752;SDS011;65687;51.308;16.916;2023-04-29T04:02:14;14.50;;;8.20;;
76752;SDS011;65687;51.308;16.916;2023-04-29T04:07:16;13.10;;;9.10;;
76752;SDS011;65687;51.308;16.916;2023-04-29T04:12:18;12.30;;;7.90;;
76752;SDS011;65687;51.308;16.916;2023-04-29T04:17:19;11.50;;;7.50;;
76752;SDS011;65687;51.308;16.916;2023-04-29T04:22:21;9.80;;;6.00;;
76752;SDS011;65687;51.308;16.916;2023-04-29T04:27:22;10.20;;;6.90;;
76752;SDS011;65687;51.308;16.916;2023-04-29T04:32:24;15.80;;;9.00;;
76752;SDS011;65687;51.308;16.916;2023-04-29T04:37:26;14.30;;;8.60;;
76752;SDS011;65687;51.308;16.916;2023-04-29T04:42:28;15.40;;;8.60;;
76752;SDS011;65687;51.308;16.916;2023-04-29T04:47:30;9.50;;;6.70;;
76752;SDS011;65687;51.308;16.916;2023-04-29T04:52:32;12.70;;;8.30;;
76752;SDS011;65687;51.308;16.916;2023-04-29T05:02:35;11.40;;;6.60;;
76752;SDS011;65687;51.308;16.916;2023-04-29T05:07:37;10.00;;;7.00;;
76752;SDS011;65687;51.308;16.916;2023-04-29T05:12:38;12.60;;;6.70;;
76752;SDS011;65687;51.308;16.916;2023-04-29T05:17:40;9.70;;;6.90;;
76752;SDS011;65687;51.308;16.916;2023-04-29T05:22:41;12.30;;;7.40;;
76752;SDS011;65687;51.308;16.916;2023-04-29T05:27:43;12.10;;;7.40;;
76752;SDS011;65687;51.308;16.916;2023-04-29T05:32:44;11.50;;;7.90;;
76752;SDS011;65687;51.308;16.916;2023-04-29T05:37:46;10.80;;;7.30;;
76752;SDS011;65687;51.308;16.916;2023-04-29T05:42:47;13.10;;;7.70;;
76752;SDS011;65687;51.308;16.916;2023-04-29T05:47:49;10.60;;;7.00;;
76752;SDS011;65687;51.308;16.916;2023-04-29T05:52:51;10.70;;;7.20;;
76752;SDS011;65687;51.308;16.916;2023-04-29T05:57:54;9.70;;;6.80;;
76752;SDS011;65687;51.308;16.916;2023-04-29T06:02:56;12.90;;;8.10;;
76752;SDS011;65687;51.308;16.916;2023-04-29T06:07:57;12.00;;;8.20;;
76752;SDS011;65687;51.308;16.916;2023-04-29T06:12:59;10.60;;;7.60;;
76752;SDS011;65687;51.308;16.916;2023-04-29T06:18:01;13.60;;;8.10;;
76752;SDS011;65687;51.308;16.916;2023-04-29T06:23:02;11.70;;;8.90;;
76752;SDS011;65687;51.308;16.916;2023-04-29T06:28:05;11.10;;;7.70;;
76752;SDS011;65687;51.308;16.916;2023-04-29T06:33:08;12.10;;;7.20;;
76752;SDS011;65687;51.308;16.916;2023-04-29T06:38:10;11.40;;;7.30;;
76752;SDS011;65687;51.308;16.916;2023-04-29T06:43:11;13.50;;;8.70;;
76752;SDS011;65687;51.308;16.916;2023-04-29T06:48:13;13.00;;;8.50;;
76752;SDS011;65687;51.308;16.916;2023-04-29T06:53:14;14.00;;;10.10;;
76752;SDS011;65687;51.308;16.916;2023-04-29T06:58:16;14.00;;;9.40;;
76752;SDS011;65687;51.308;16.916;2023-04-29T07:03:19;13.40;;;8.80;;
76752;SDS011;65687;51.308;16.916;2023-04-29T07:08:20;11.30;;;8.70;;
76752;SDS011;65687;51.308;16.916;2023-04-29T07:13:22;13.50;;;9.80;;
76752;SDS011;65687;51.308;16.916;2023-04-29T07:18:24;14.90;;;10.60;;
76752;SDS011;65687;51.308;16.916;2023-04-29T07:23:25;15.70;;;9.50;;
76752;SDS011;65687;51.308;16.916;2023-04-29T07:28:27;14.40;;;9.80;;
76752;SDS011;65687;51.308;16.916;2023-04-29T07:33:28;15.90;;;8.80;;
76752;SDS011;65687;51.308;16.916;2023-04-29T07:38:31;13.40;;;8.40;;
76752;SDS011;65687;51.308;16.916;2023-04-29T07:43:32;13.50;;;9.20;;
76752;SDS011;65687;51.308;16.916;2023-04-29T07:48:39;13.60;;;8.70;;
76752;SDS011;65687;51.308;16.916;2023-04-29T07:53:41;12.40;;;10.10;;
76752;SDS011;65687;51.308;16.916;2023-04-29T07:58:43;14.00;;;11.60;;
76752;SDS011;65687;51.308;16.916;2023-04-29T08:03:45;11.60;;;10.10;;
76752;SDS011;65687;51.308;16.916;2023-04-29T08:08:49;13.70;;;10.30;;
76752;SDS011;65687;51.308;16.916;2023-04-29T08:13:51;15.50;;;11.10;;
76752;SDS011;65687;51.308;16.916;2023-04-29T08:18:53;14.80;;;11.10;;
76752;SDS011;65687;51.308;16.916;2023-04-29T08:23:54;17.00;;;11.70;;
76752;SDS011;65687;51.308;16.916;2023-04-29T08:28:56;17.20;;;11.90;;
76752;SDS011;65687;51.308;16.916;2023-04-29T08:33:58;13.70;;;10.90;;
76752;SDS011;65687;51.308;16.916;2023-04-29T08:38:59;17.40;;;12.60;;
76752;SDS011;65687;51.308;16.916;2023-04-29T08:44:01;15.70;;;12.10;;
76752;SDS011;65687;51.308;16.916;2023-04-29T08:49:03;16.80;;;11.60;;
76752;SDS011;65687;51.308;16.916;2023-04-29T08:54:05;16.80;;;11.10;;
76752;SDS011;65687;51.308;16.916;2023-04-29T08:59:08;14.50;;;11.60;;
76752;SDS011;65687;51.308;16.916;2023-04-29T09:04:16;14.40;;;10.50;;
76752;SDS011;65687;51.308;16.916;2023-04-29T09:09:30;16.20;;;12.00;;
76752;SDS011;65687;51.308;16.916;2023-04-29T09:14:33;14.30;;;10.20;;
76752;SDS011;65687;51.308;16.916;2023-04-29T09:19:35;13.00;;;9.20;;
76752;SDS011;65687;51.308;16.916;2023-04-29T09:24:37;12.70;;;10.10;;
76752;SDS011;65687;51.308;16.916;2023-04-29T09:29:42;12.60;;;9.90;;
76752;SDS011;65687;51.308;16.916;2023-04-29T09:40:29;11.40;;;8.10;;
76752;SDS011;65687;51.308;16.916;2023-04-29T09:45:32;7.60;;;5.60;;
76752;SDS011;65687;51.308;16.916;2023-04-29T09:50:36;6.30;;;4.50;;
76752;SDS011;65687;51.308;16.916;2023-04-29T09:55:58;8.60;;;6.20;;
76752;SDS011;65687;51.308;16.916;2023-04-29T10:01:01;8.10;;;6.20;;
76752;SDS011;65687;51.308;16.916;2023-04-29T10:06:04;6.70;;;5.60;;
76752;SDS011;65687;51.308;16.916;2023-04-29T10:11:07;7.10;;;5.10;;
76752;SDS011;65687;51.308;16.916;2023-04-29T10:16:27;8.60;;;5.00;;
76752;SDS011;65687;51.308;16.916;2023-04-29T10:21:30;7.10;;;4.90;;
76752;SDS011;65687;51.308;16.916;2023-04-29T10:26:32;6.40;;;4.90;;
76752;SDS011;65687;51.308;16.916;2023-04-29T10:31:37;5.20;;;3.70;;
76752;SDS011;65687;51.308;16.916;2023-04-29T10:36:41;6.50;;;3.60;;
76752;SDS011;65687;51.308;16.916;2023-04-29T10:41:43;4.80;;;4.20;;
76752;SDS011;65687;51.308;16.916;2023-04-29T10:46:49;6.70;;;4.30;;
76752;SDS011;65687;51.308;16.916;2023-04-29T10:52:19;7.80;;;5.20;;
76752;SDS011;65687;51.308;16.916;2023-04-29T10:57:21;7.00;;;4.90;;
76752;SDS011;65687;51.308;16.916;2023-04-29T11:02:23;6.40;;;4.40;;
76752;SDS011;65687;51.308;16.916;2023-04-29T11:07:28;6.70;;;4.60;;
76752;SDS011;65687;51.308;16.916;2023-04-29T11:12:29;8.10;;;5.30;;
76752;SDS011;65687;51.308;16.916;2023-04-29T11:17:34;6.00;;;3.70;;
76752;SDS011;65687;51.308;16.916;2023-04-29T11:22:37;5.90;;;4.10;;
76752;SDS011;65687;51.308;16.916;2023-04-29T11:27:39;5.00;;;3.90;;
76752;SDS011;65687;51.308;16.916;2023-04-29T11:32:42;3.60;;;2.80;;
76752;SDS011;65687;51.308;16.916;2023-04-29T11:37:45;4.50;;;3.40;;
76752;SDS011;65687;51.308;16.916;2023-04-29T11:42:47;4.20;;;2.90;;
76752;SDS011;65687;51.308;16.916;2023-04-29T11:47:49;4.20;;;3.00;;
76752;SDS011;65687;51.308;16.916;2023-04-29T11:52:51;5.70;;;3.10;;
76752;SDS011;65687;51.308;16.916;2023-04-29T12:02:54;4.80;;;3.20;;
76752;SDS011;65687;51.308;16.916;2023-04-29T12:07:56;5.40;;;3.40;;
76752;SDS011;65687;51.308;16.916;2023-04-29T12:12:57;5.20;;;3.40;;
76752;SDS011;65687;51.308;16.916;2023-04-29T12:18:00;4.00;;;3.10;;
76752;SDS011;65687;51.308;16.916;2023-04-29T12:23:12;5.40;;;3.90;;
76752;SDS011;65687;51.308;16.916;2023-04-29T12:28:22;4.40;;;3.70;;
76752;SDS011;65687;51.308;16.916;2023-04-29T12:33:26;10.30;;;6.30;;
76752;SDS011;65687;51.308;16.916;2023-04-29T12:38:29;4.90;;;3.80;;
76752;SDS011;65687;51.308;16.916;2023-04-29T12:43:31;5.00;;;3.60;;
76752;SDS011;65687;51.308;16.916;2023-04-29T12:48:37;5.80;;;3.60;;
76752;SDS011;65687;51.308;16.916;2023-04-29T12:53:39;3.70;;;3.10;;
76752;SDS011;65687;51.308;16.916;2023-04-29T12:58:40;5.00;;;3.10;;
76752;SDS011;65687;51.308;16.916;2023-04-29T13:03:42;4.60;;;3.20;;
76752;SDS011;65687;51.308;16.916;2023-04-29T13:08:44;5.00;;;3.50;;
76752;SDS011;65687;51.308;16.916;2023-04-29T13:13:45;5.10;;;3.90;;
76752;SDS011;65687;51.308;16.916;2023-04-29T13:18:47;2.90;;;2.30;;
76752;SDS011;65687;51.308;16.916;2023-04-29T13:23:48;4.30;;;2.90;;
76752;SDS011;65687;51.308;16.916;2023-04-29T13:28:50;2.90;;;2.20;;
76752;SDS011;65687;51.308;16.916;2023-04-29T13:33:52;3.10;;;2.30;;
76752;SDS011;65687;51.308;16.916;2023-04-29T13:38:55;5.30;;;2.90;;
76752;SDS011;65687;51.308;16.916;2023-04-29T13:43:57;3.50;;;2.70;;
76752;SDS011;65687;51.308;16.916;2023-04-29T13:48:58;2.60;;;1.70;;
76752;SDS011;65687;51.308;16.916;2023-04-29T13:54:00;4.30;;;2.40;;
76752;SDS011;65687;51.308;16.916;2023-04-29T13:59:01;8.00;;;5.30;;
76752;SDS011;65687;51.308;16.916;2023-04-29T14:04:03;3.80;;;2.60;;
76752;SDS011;65687;51.308;16.916;2023-04-29T14:09:04;3.00;;;2.20;;
76752;SDS011;65687;51.308;16.916;2023-04-29T14:14:06;4.90;;;3.00;;
76752;SDS011;65687;51.308;16.916;2023-04-29T14:19:07;5.40;;;3.00;;
76752;SDS011;65687;51.308;16.916;2023-04-29T14:24:09;6.00;;;3.40;;
76752;SDS011;65687;51.308;16.916;2023-04-29T14:29:11;8.10;;;5.80;;
76752;SDS011;65687;51.308;16.916;2023-04-29T14:34:12;5.70;;;5.10;;
76752;SDS011;65687;51.308;16.916;2023-04-29T14:39:14;7.00;;;5.40;;
76752;SDS011;65687;51.308;16.916;2023-04-29T14:44:15;7.10;;;5.20;;
76752;SDS011;65687;51.308;16.916;2023-04-29T14:49:17;6.70;;;5.10;;
76752;SDS011;65687;51.308;16.916;2023-04-29T14:54:18;5.60;;;5.10;;
76752;SDS011;65687;51.308;16.916;2023-04-29T14:59:20;10.80;;;7.10;;
76752;SDS011;65687;51.308;16.916;2023-04-29T15:04:22;9.40;;;6.10;;
76752;SDS011;65687;51.308;16.916;2023-04-29T15:09:23;11.70;;;7.50;;
76752;SDS011;65687;51.308;16.916;2023-04-29T15:14:26;10.80;;;7.70;;
76752;SDS011;65687;51.308;16.916;2023-04-29T15:19:28;10.40;;;7.80;;
76752;SDS011;65687;51.308;16.916;2023-04-29T15:24:29;10.60;;;8.90;;
76752;SDS011;65687;51.308;16.916;2023-04-29T15:29:31;10.00;;;7.30;;
76752;SDS011;65687;51.308;16.916;2023-04-29T15:34:34;11.90;;;8.80;;
76752;SDS011;65687;51.308;16.916;2023-04-29T15:39:36;15.00;;;10.80;;
76752;SDS011;65687;51.308;16.916;2023-04-29T15:44:37;15.10;;;7.80;;
76752;SDS011;65687;51.308;16.916;2023-04-29T15:49:40;7.60;;;5.70;;
76752;SDS011;65687;51.308;16.916;2023-04-29T15:54:41;11.10;;;6.80;;
76752;SDS011;65687;51.308;16.916;2023-04-29T15:59:43;12.00;;;8.00;;
76752;SDS011;65687;51.308;16.916;2023-04-29T16:04:45;13.30;;;7.50;;
76752;SDS011;65687;51.308;16.916;2023-04-29T16:09:46;14.70;;;9.50;;
76752;SDS011;65687;51.308;16.916;2023-04-29T16:14:48;12.60;;;8.10;;
76752;SDS011;65687;51.308;16.916;2023-04-29T16:19:50;13.40;;;9.50;;
76752;SDS011;65687;51.308;16.916;2023-04-29T16:24:51;19.10;;;11.90;;
76752;SDS011;65687;51.308;16.916;2023-04-29T16:29:53;16.40;;;13.10;;
76752;SDS011;65687;51.308;16.916;2023-04-29T16:34:55;14.80;;;11.50;;
76752;SDS011;65687;51.308;16.916;2023-04-29T16:39:56;22.20;;;15.10;;
76752;SDS011;65687;51.308;16.916;2023-04-29T16:44:58;14.60;;;10.60;;
76752;SDS011;65687;51.308;16.916;2023-04-29T16:49:59;12.20;;;8.30;;
76752;SDS011;65687;51.308;16.916;2023-04-29T16:55:01;7.50;;;5.70;;
76752;SDS011;65687;51.308;16.916;2023-04-29T17:00:04;5.30;;;4.40;;
76752;SDS011;65687;51.308;16.916;2023-04-29T17:05:10;4.50;;;3.30;;
76752;SDS011;65687;51.308;16.916;2023-04-29T17:10:12;7.20;;;5.00;;
76752;SDS011;65687;51.308;16.916;2023-04-29T17:15:13;5.70;;;4.60;;
76752;SDS011;65687;51.308;16.916;2023-04-29T17:20:15;7.80;;;6.10;;
76752;SDS011;65687;51.308;16.916;2023-04-29T17:25:16;9.30;;;6.10;;
76752;SDS011;65687;51.308;16.916;2023-04-29T17:30:18;16.70;;;11.50;;
76752;SDS011;65687;51.308;16.916;2023-04-29T17:35:19;9.20;;;6.60;;
76752;SDS011;65687;51.308;16.916;2023-04-29T17:40:21;8.60;;;6.80;;
76752;SDS011;65687;51.308;16.916;2023-04-29T17:45:22;10.10;;;7.80;;
76752;SDS011;65687;51.308;16.916;2023-04-29T17:50:25;13.60;;;9.90;;
76752;SDS011;65687;51.308;16.916;2023-04-29T17:55:26;15.30;;;11.00;;
76752;SDS011;65687;51.308;16.916;2023-04-29T18:00:28;21.40;;;13.40;;
76752;SDS011;65687;51.308;16.916;2023-04-29T18:05:30;22.80;;;14.70;;
76752;SDS011;65687;51.308;16.916;2023-04-29T18:10:31;23.30;;;16.40;;
76752;SDS011;65687;51.308;16.916;2023-04-29T18:15:33;27.00;;;16.10;;
76752;SDS011;65687;51.308;16.916;2023-04-29T18:20:34;24.20;;;15.40;;
76752;SDS011;65687;51.308;16.916;2023-04-29T18:25:37;27.40;;;16.50;;
76752;SDS011;65687;51.308;16.916;2023-04-29T18:30:39;24.30;;;15.00;;
76752;SDS011;65687;51.308;16.916;2023-04-29T18:35:41;26.60;;;17.30;;
76752;SDS011;65687;51.308;16.916;2023-04-29T18:45:44;25.90;;;16.60;;
76752;SDS011;65687;51.308;16.916;2023-04-29T18:50:46;27.70;;;17.50;;
76752;SDS011;65687;51.308;16.916;2023-04-29T18:55:47;29.50;;;18.00;;
76752;SDS011;65687;51.308;16.916;2023-04-29T19:00:49;27.40;;;17.50;;
76752;SDS011;65687;51.308;16.916;2023-04-29T19:05:51;25.80;;;17.30;;
76752;SDS011;65687;51.308;16.916;2023-04-29T19:10:52;27.80;;;18.20;;
76752;SDS011;65687;51.308;16.916;2023-04-29T19:15:54;27.40;;;18.60;;
76752;SDS011;65687;51.308;16.916;2023-04-29T19:20:56;31.30;;;19.00;;
76752;SDS011;65687;51.308;16.916;2023-04-29T19:25:57;30.80;;;19.70;;
76752;SDS011;65687;51.308;16.916;2023-04-29T19:30:59;30.20;;;19.00;;
76752;SDS011;65687;51.308;16.916;2023-04-29T19:36:00;29.60;;;19.40;;
76752;SDS011;65687;51.308;16.916;2023-04-29T19:41:02;31.90;;;21.40;;
76752;SDS011;65687;51.308;16.916;2023-04-29T19:46:04;31.60;;;20.10;;
76752;SDS011;65687;51.308;16.916;2023-04-29T19:51:07;30.30;;;20.40;;
76752;SDS011;65687;51.308;16.916;2023-04-29T19:56:09;33.90;;;21.20;;
76752;SDS011;65687;51.308;16.916;2023-04-29T20:01:10;32.60;;;20.40;;
76752;SDS011;65687;51.308;16.916;2023-04-29T20:06:14;32.70;;;20.40;;
76752;SDS011;65687;51.308;16.916;2023-04-29T20:11:16;28.70;;;18.70;;
76752;SDS011;65687;51.308;16.916;2023-04-29T20:16:18;30.40;;;19.00;;
76752;SDS011;65687;51.308;16.916;2023-04-29T20:21:19;31.40;;;19.60;;
76752;SDS011;65687;51.308;16.916;2023-04-29T20:26:21;23.50;;;16.60;;
76752;SDS011;65687;51.308;16.916;2023-04-29T20:31:22;27.20;;;15.70;;
76752;SDS011;65687;51.308;16.916;2023-04-29T20:36:24;20.90;;;14.00;;
76752;SDS011;65687;51.308;16.916;2023-04-29T20:41:28;21.70;;;13.80;;
76752;SDS011;65687;51.308;16.916;2023-04-29T20:46:30;21.10;;;13.90;;
76752;SDS011;65687;51.308;16.916;2023-04-29T20:51:31;18.70;;;12.30;;
76752;SDS011;65687;51.308;16.916;2023-04-29T20:56:33;20.60;;;13.80;;
76752;SDS011;65687;51.308;16.916;2023-04-29T21:01:34;19.00;;;12.40;;
76752;SDS011;65687;51.308;16.916;2023-04-29T21:06:36;19.40;;;11.80;;
76752;SDS011;65687;51.308;16.916;2023-04-29T21:11:37;19.80;;;13.70;;
76752;SDS011;65687;51.308;16.916;2023-04-29T21:16:39;18.30;;;12.90;;
76752;SDS011;65687;51.308;16.916;2023-04-29T21:21:41;19.60;;;13.30;;
76752;SDS011;65687;51.308;16.916;2023-04-29T21:26:42;19.20;;;13.90;;
76752;SDS011;65687;51.308;16.916;2023-04-29T21:31:45;22.50;;;13.80;;
76752;SDS011;65687;51.308;16.916;2023-04-29T21:36:46;14.50;;;10.40;;
76752;SDS011;65687;51.308;16.916;2023-04-29T21:41:48;19.00;;;12.40;;
76752;SDS011;65687;51.308;16.916;2023-04-29T21:46:50;21.90;;;13.10;;
76752;SDS011;65687;51.308;16.916;2023-04-29T21:51:53;15.30;;;11.20;;
76752;SDS011;65687;51.308;16.916;2023-04-29T21:56:55;15.20;;;10.20;;
76752;SDS011;65687;51.308;16.916;2023-04-29T22:01:58;16.90;;;12.30;;
76752;SDS011;65687;51.308;16.916;2023-04-29T22:07:04;16.80;;;11.30;;
76752;SDS011;65687;51.308;16.916;2023-04-29T22:12:05;18.50;;;12.80;;
76752;SDS011;65687;51.308;16.916;2023-04-29T22:17:07;15.70;;;10.30;;
76752;SDS011;65687;51.308;16.916;2023-04-29T22:22:08;17.30;;;11.70;;
76752;SDS011;65687;51.308;16.916;2023-04-29T22:27:10;17.50;;;11.70;;
76752;SDS011;65687;51.308;16.916;2023-04-29T22:32:11;16.90;;;11.30;;
76752;SDS011;65687;51.308;16.916;2023-04-29T22:37:13;16.30;;;10.80;;
76752;SDS011;65687;51.308;16.916;2023-04-29T22:42:15;13.40;;;9.80;;
76752;SDS011;65687;51.308;16.916;2023-04-29T22:47:18;15.20;;;11.10;;
76752;SDS011;65687;51.308;16.916;2023-04-29T22:52:19;14.90;;;9.10;;
76752;SDS011;65687;51.308;16.916;2023-04-29T22:57:21;14.90;;;10.50;;
76752;SDS011;65687;51.308;16.916;2023-04-29T23:02:23;14.60;;;9.80;;
76752;SDS011;65687;51.308;16.916;2023-04-29T23:07:29;16.00;;;10.60;;
76752;SDS011;65687;51.308;16.916;2023-04-29T23:12:30;16.20;;;11.20;;
76752;SDS011;65687;51.308;16.916;2023-04-29T23:17:32;13.00;;;10.60;;
76752;SDS011;65687;51.308;16.916;2023-04-29T23:22:37;14.70;;;10.60;;
76752;SDS011;65687;51.308;16.916;2023-04-29T23:27:38;14.50;;;10.20;;
76752;SDS011;65687;51.308;16.916;2023-04-29T23:32:40;15.30;;;10.70;;
76752;SDS011;65687;51.308;16.916;2023-04-29T23:37:42;15.60;;;11.50;;
76752;SDS011;65687;51.308;16.916;2023-04-29T23:42:43;16.40;;;12.00;;
76752;SDS011;65687;51.308;16.916;2023-04-29T23:47:45;15.30;;;10.50;;
76752;SDS011;65687;51.308;16.916;2023-04-29T23:52:46;14.10;;;9.50;;
76752;SDS011;65687;51.308;16.916;2023-04-29T23:57:48;13.90;;;10.50;;
